HBZYC LSZS-LSZS

Flight info

Callsign HBZYC
Flight time N/A
Altitude 10000
Route LOCAL FLIGHT
Aircraft EC20/L-S/L

Departure

Time 2026-04-21 15:14
Airport Engadin Airport (LSZS)

Arrival

Time N/A
Airport Engadin Airport (LSZS)
Time Latitude Longitude Altitude Speed Heading
2026-04-21 15:12 46.53196 9.88002 5601 ft 0 kts 179°
2026-04-21 15:13 46.53195 9.88022 5614 ft 10 kts 118°
2026-04-21 15:13 46.53153 9.88161 5633 ft 25 kts 150°
2026-04-21 15:13 46.52837 9.88258 5709 ft 71 kts 183°
2026-04-21 15:14 46.52269 9.88414 5937 ft 89 kts 171°
2026-04-21 15:14 46.51650 9.88707 6219 ft 97 kts 161°
2026-04-21 15:14 46.51003 9.89099 6485 ft 102 kts 156°
2026-04-21 15:14 46.50357 9.89566 6749 ft 106 kts 149°
2026-04-21 15:15 46.49721 9.90119 6944 ft 107 kts 145°
2026-04-21 15:15 46.49122 9.90739 7151 ft 107 kts 141°
2026-04-21 15:15 46.48517 9.91381 7342 ft 108 kts 141°
2026-04-21 15:15 46.47881 9.91979 7608 ft 105 kts 148°
2026-04-21 15:16 46.47238 9.92434 7955 ft 103 kts 159°
2026-04-21 15:16 46.46560 9.92790 8237 ft 104 kts 160°
2026-04-21 15:16 46.45883 9.93127 8550 ft 102 kts 160°
2026-04-21 15:16 46.45205 9.93457 8761 ft 101 kts 160°
2026-04-21 15:17 46.44552 9.93731 9048 ft 94 kts 164°
2026-04-21 15:17 46.43949 9.93952 9375 ft 84 kts 165°
2026-04-21 15:17 46.43406 9.94216 9734 ft 84 kts 160°
2026-04-21 15:17 46.42839 9.94496 10042 ft 89 kts 164°
2026-04-21 15:18 46.42230 9.94824 10361 ft 91 kts 151°
2026-04-21 15:18 46.41659 9.95326 10571 ft 101 kts 141°
2026-04-21 15:18 46.41138 9.95949 10725 ft 94 kts 136°
2026-04-21 15:18 46.40689 9.96577 11034 ft 85 kts 132°
2026-04-21 15:19 46.40276 9.97157 11393 ft 82 kts 137°
2026-04-21 15:19 46.39819 9.97605 11731 ft 78 kts 156°
2026-04-21 15:19 46.39297 9.97771 12053 ft 79 kts 187°
2026-04-21 15:19 46.38763 9.97538 12351 ft 84 kts 210°
2026-04-21 15:20 46.38261 9.97191 12658 ft 77 kts 219°
2026-04-21 15:20 46.37923 9.96676 12922 ft 68 kts 256°
2026-04-21 15:20 46.37885 9.95998 13095 ft 75 kts 268°
2026-04-21 15:20 46.37837 9.95148 13144 ft 93 kts 266°
2026-04-21 15:21 46.37778 9.94203 13166 ft 95 kts 267°
2026-04-21 15:21 46.37831 9.93277 13388 ft 87 kts 280°
2026-04-21 15:21 46.37964 9.92436 13621 ft 84 kts 279°
2026-04-21 15:21 46.38025 9.91641 13712 ft 74 kts 278°
2026-04-21 15:22 46.38057 9.91048 13709 ft 45 kts 285°
2026-04-21 15:22 46.38050 9.90686 13642 ft 39 kts 278°
2026-04-21 15:22 46.37734 9.90151 13518 ft 91 kts 230°
2026-04-21 15:22 46.37349 9.89282 13276 ft 111 kts 246°
2026-04-21 15:23 46.37193 9.88138 12992 ft 119 kts 268°
2026-04-21 15:23 46.37255 9.86981 12880 ft 117 kts 278°
2026-04-21 15:23 46.37292 9.85762 12650 ft 122 kts 267°
2026-04-21 15:23 46.37438 9.84594 12469 ft 123 kts 292°
2026-04-21 15:24 46.38013 9.83602 12023 ft 135 kts 316°
2026-04-21 15:24 46.38818 9.82918 11635 ft 136 kts 331°
2026-04-21 15:24 46.39653 9.82452 11563 ft 120 kts 338°
2026-04-21 15:24 46.40484 9.82365 11373 ft 122 kts 353°
2026-04-21 15:25 46.41310 9.82320 11202 ft 116 kts 342°
2026-04-21 15:25 46.42073 9.81975 11075 ft 114 kts 336°
2026-04-21 15:25 46.41834 9.81842 10943 ft 53 kts 112°
2026-04-21 15:25 46.41777 9.82035 10983 ft 3 kts 127°
2026-04-21 15:26 46.41764 9.82055 10981 ft 3 kts 130°
2026-04-21 15:26 46.41761 9.82059 10976 ft 0 kts 134°
2026-04-21 15:26 46.41745 9.81874 10745 ft 66 kts 280°
2026-04-21 15:27 46.41591 9.80816 10198 ft 125 kts 255°
2026-04-21 15:27 46.41239 9.79543 9649 ft 150 kts 248°
2026-04-21 15:27 46.40816 9.78105 9012 ft 156 kts 255°
2026-04-21 15:27 46.40598 9.76580 8515 ft 154 kts 259°
2026-04-21 15:28 46.40402 9.75044 7807 ft 161 kts 261°
2026-04-21 15:28 46.40298 9.73526 7511 ft 143 kts 264°
2026-04-21 15:28 46.40014 9.72156 7173 ft 143 kts 243°
2026-04-21 15:28 46.39560 9.70945 7054 ft 134 kts 243°
2026-04-21 15:29 46.39209 9.69703 6906 ft 132 kts 250°
2026-04-21 15:29 46.38902 9.68468 6741 ft 128 kts 249°
2026-04-21 15:29 46.38433 9.67341 6439 ft 141 kts 223°
2026-04-21 15:29 46.37587 9.66520 6050 ft 148 kts 214°
2026-04-21 15:30 46.36799 9.65640 5819 ft 140 kts 220°
2026-04-21 15:30 46.36189 9.64605 5633 ft 132 kts 239°
2026-04-21 15:30 46.35757 9.63499 5575 ft 125 kts 240°
2026-04-21 15:30 46.35330 9.62370 5288 ft 132 kts 241°
2026-04-21 15:31 46.34910 9.61172 5017 ft 135 kts 244°
2026-04-21 15:31 46.34559 9.59907 4776 ft 135 kts 248°
2026-04-21 15:31 46.34274 9.58626 4604 ft 132 kts 250°
2026-04-21 15:31 46.33963 9.57378 4434 ft 129 kts 245°
2026-04-21 15:32 46.33649 9.56148 4228 ft 126 kts 258°
2026-04-21 15:32 46.33609 9.54994 4051 ft 104 kts 275°
2026-04-21 15:32 46.33768 9.54162 3905 ft 68 kts 307°
2026-04-21 15:32 46.33960 9.53757 3708 ft 39 kts 322°
2026-04-21 15:33 46.34104 9.53559 3601 ft 21 kts 333°
2026-04-21 15:33 46.34164 9.53493 3559 ft 4 kts 320°
2026-04-21 15:33 46.34175 9.53484 3558 ft 1 kts 343°
2026-04-21 15:33 46.34174 9.53482 3556 ft 0 kts 342°
2026-04-21 15:37 46.34099 9.53540 3582 ft 43 kts 116°
2026-04-21 15:37 46.34139 9.54071 3935 ft 59 kts 78°
2026-04-21 15:38 46.34173 9.54719 4278 ft 72 kts 85°
2026-04-21 15:38 46.34269 9.55558 4425 ft 92 kts 68°
2026-04-21 15:38 46.34518 9.56388 4699 ft 88 kts 63°
2026-04-21 15:38 46.34715 9.57240 4926 ft 87 kts 68°
2026-04-21 15:39 46.34897 9.58028 5222 ft 79 kts 68°
2026-04-21 15:39 46.35025 9.58817 5494 ft 83 kts 75°
2026-04-21 15:39 46.35230 9.59683 5588 ft 96 kts 60°
2026-04-21 15:39 46.35573 9.60560 5667 ft 103 kts 57°
2026-04-21 15:40 46.35925 9.61475 5743 ft 100 kts 57°
2026-04-21 15:40 46.36220 9.62324 6004 ft 93 kts 60°
2026-04-21 15:40 46.36550 9.63196 5977 ft 105 kts 54°
2026-04-21 15:40 46.36948 9.64067 6103 ft 104 kts 51°
2026-04-21 15:41 46.37376 9.64953 6115 ft 113 kts 49°
2026-04-21 15:41 46.37872 9.65904 6054 ft 119 kts 45°
2026-04-21 15:41 46.38433 9.66807 6058 ft 122 kts 41°
2026-04-21 15:41 46.39042 9.67652 6105 ft 119 kts 35°
2026-04-21 15:42 46.39614 9.68474 6212 ft 119 kts 47°
2026-04-21 15:42 46.40111 9.69436 6237 ft 118 kts 45°
2026-04-21 15:42 46.40645 9.70329 6290 ft 114 kts 44°
2026-04-21 15:42 46.41088 9.71235 6425 ft 107 kts 52°
2026-04-21 15:43 46.41453 9.72179 6501 ft 106 kts 52°
2026-04-21 15:43 46.41869 9.73064 6593 ft 107 kts 46°
2026-04-21 15:43 46.42359 9.73932 6564 ft 117 kts 42°
2026-04-21 15:43 46.42935 9.74813 6545 ft 113 kts 38°
2026-04-21 15:44 46.43426 9.75605 6744 ft 101 kts 43°
2026-04-21 15:44 46.43854 9.76424 6818 ft 105 kts 47°
2026-04-21 15:44 46.44320 9.77321 6768 ft 115 kts 42°
2026-04-21 15:44 46.44910 9.78040 6821 ft 103 kts 32°
2026-04-21 15:45 46.45435 9.78619 6972 ft 89 kts 32°
2026-04-21 15:45 46.45904 9.79271 6977 ft 102 kts 39°